createdAt,value
2023-01-25T00:02:04.390Z,25.00
2023-01-25T00:04:30.666Z,25.00
2023-01-25T00:06:57.445Z,25.00
2023-01-25T00:09:26.043Z,25.00
2023-01-25T00:11:52.641Z,25.00
2023-01-25T00:14:22.686Z,25.00
2023-01-25T00:16:48.786Z,25.10
2023-01-25T00:19:16.417Z,25.00
2023-01-25T00:21:42.850Z,25.00
2023-01-25T00:24:14.753Z,25.00
2023-01-25T00:26:43.347Z,25.00
2023-01-25T00:29:12.664Z,25.00
2023-01-25T00:32:01.481Z,25.00
2023-01-25T00:34:33.743Z,25.00
2023-01-25T00:37:39.346Z,25.10
2023-01-25T00:40:06.323Z,25.10
2023-01-25T00:42:32.499Z,25.00
2023-01-25T00:45:00.404Z,25.10
2023-01-25T00:47:28.715Z,25.10
2023-01-25T00:49:54.829Z,25.00
2023-01-25T00:52:22.349Z,25.00
2023-01-25T00:54:48.771Z,25.10
2023-01-25T00:57:18.373Z,25.10
2023-01-25T00:59:46.852Z,25.10
2023-01-25T01:02:13.024Z,25.10
2023-01-25T01:04:39.171Z,25.00
2023-01-25T01:07:08.435Z,25.10
2023-01-25T01:09:38.448Z,25.00
2023-01-25T01:12:04.856Z,25.00
2023-01-25T01:14:32.442Z,25.00
2023-01-25T01:16:59.425Z,25.10
2023-01-25T01:19:25.558Z,25.10
2023-01-25T01:21:51.664Z,25.10
2023-01-25T01:24:17.780Z,25.00
2023-01-25T01:26:45.597Z,25.00
2023-01-25T01:29:14.024Z,25.10
2023-01-25T01:31:41.711Z,25.10
2023-01-25T01:34:33.500Z,25.10
2023-01-25T01:36:59.553Z,25.10
2023-01-25T01:39:25.654Z,25.10
2023-01-25T01:41:51.713Z,25.10
2023-01-25T01:44:40.747Z,25.10
2023-01-25T01:47:41.197Z,25.10
2023-01-25T01:50:30.367Z,25.10
2023-01-25T01:52:56.448Z,25.10
2023-01-25T01:55:24.477Z,25.10
2023-01-25T01:57:57.465Z,25.10
2023-01-25T02:00:33.652Z,25.10
2023-01-25T02:03:00.984Z,25.10
2023-01-25T02:05:59.697Z,25.10
2023-01-25T02:08:27.299Z,25.10
2023-01-25T02:10:53.383Z,25.10
2023-01-25T02:13:21.589Z,25.10
2023-01-25T02:15:53.507Z,25.10
2023-01-25T02:18:19.858Z,25.10
2023-01-25T02:20:57.937Z,25.10
2023-01-25T02:24:03.853Z,25.10
2023-01-25T02:26:30.763Z,25.10
2023-01-25T02:29:06.022Z,25.10
2023-01-25T02:31:32.916Z,25.10
2023-01-25T02:33:59.284Z,25.10
2023-01-25T02:36:35.344Z,25.10
2023-01-25T02:39:19.334Z,25.10
2023-01-25T02:41:47.502Z,25.10
2023-01-25T02:44:16.547Z,25.10
2023-01-25T02:46:45.195Z,25.10
2023-01-25T02:49:12.969Z,25.10
2023-01-25T02:51:44.792Z,25.10
2023-01-25T02:54:14.391Z,25.10
2023-01-25T02:56:40.733Z,25.10
2023-01-25T02:59:08.515Z,25.10
2023-01-25T03:01:36.804Z,25.10
2023-01-25T03:04:05.748Z,25.10
2023-01-25T03:06:33.788Z,25.10
2023-01-25T03:09:00.479Z,25.10
2023-01-25T03:11:26.623Z,25.10
2023-01-25T03:13:54.539Z,25.10
2023-01-25T03:16:22.636Z,25.10
2023-01-25T03:18:51.999Z,25.10
2023-01-25T03:21:20.878Z,25.10
2023-01-25T03:23:59.668Z,25.10
2023-01-25T03:26:27.422Z,25.10
2023-01-25T03:28:55.841Z,25.10
2023-01-25T03:31:25.505Z,25.10
2023-01-25T03:33:51.596Z,25.10
2023-01-25T03:36:21.531Z,25.10
2023-01-25T03:38:51.435Z,25.10
2023-01-25T03:41:18.436Z,25.10
2023-01-25T03:43:46.455Z,25.10
2023-01-25T03:46:12.603Z,25.10
2023-01-25T03:48:38.712Z,25.10
2023-01-25T03:51:06.475Z,25.10
2023-01-25T03:53:33.507Z,25.10
2023-01-25T03:56:25.005Z,25.10
2023-01-25T03:58:52.463Z,25.10
2023-01-25T04:01:18.700Z,25.10
2023-01-25T04:03:44.917Z,25.10
2023-01-25T04:06:11.315Z,25.10
2023-01-25T04:08:38.442Z,25.10
2023-01-25T04:11:09.510Z,25.10
2023-01-25T04:13:39.165Z,25.10
2023-01-25T04:16:11.925Z,25.10
2023-01-25T04:18:40.132Z,25.10
2023-01-25T04:21:31.194Z,25.10
2023-01-25T04:23:57.439Z,25.10
2023-01-25T04:26:23.612Z,25.10
2023-01-25T04:28:53.472Z,25.10
2023-01-25T04:31:23.544Z,25.10
2023-01-25T04:33:50.704Z,25.10
2023-01-25T04:36:22.847Z,25.10
2023-01-25T04:38:48.997Z,25.10
2023-01-25T04:41:16.449Z,25.10
2023-01-25T04:43:42.536Z,25.20
2023-01-25T04:46:09.105Z,25.10
2023-01-25T04:48:38.445Z,25.20
2023-01-25T04:51:04.692Z,25.10
2023-01-25T04:53:30.788Z,25.20
2023-01-25T04:55:56.915Z,25.20
2023-01-25T04:58:23.001Z,25.10
2023-01-25T05:00:49.092Z,25.20
2023-01-25T05:03:15.189Z,25.10
2023-01-25T05:05:47.684Z,25.10
2023-01-25T05:08:13.752Z,25.10
2023-01-25T05:10:39.800Z,25.20
2023-01-25T05:13:05.860Z,25.10
2023-01-25T05:15:32.479Z,25.20
2023-01-25T05:18:03.035Z,25.10
2023-01-25T05:20:32.504Z,25.10
2023-01-25T05:22:58.600Z,25.20
2023-01-25T05:25:45.007Z,25.10
2023-01-25T05:28:11.073Z,25.20
2023-01-25T05:30:38.536Z,25.10
2023-01-25T05:33:05.654Z,25.10
2023-01-25T05:35:33.477Z,25.20
2023-01-25T05:38:00.506Z,25.20
2023-01-25T05:40:27.538Z,25.20
2023-01-25T05:43:03.403Z,25.20
2023-01-25T05:45:29.554Z,25.20
2023-01-25T05:47:57.509Z,25.20
2023-01-25T05:50:25.887Z,25.20
2023-01-25T05:52:52.707Z,25.10
2023-01-25T05:55:44.074Z,25.20
2023-01-25T05:58:11.501Z,25.20
2023-01-25T06:00:37.540Z,25.20
2023-01-25T06:03:03.658Z,25.20
2023-01-25T06:05:29.820Z,25.10
2023-01-25T06:07:56.961Z,25.00
2023-01-25T06:10:23.013Z,25.00
2023-01-25T06:12:50.592Z,24.90
2023-01-25T06:15:20.521Z,24.90
2023-01-25T06:17:46.789Z,24.90
2023-01-25T06:20:12.930Z,24.90
2023-01-25T06:22:40.516Z,24.90
2023-01-25T06:25:07.606Z,24.80
2023-01-25T06:27:33.959Z,24.80
2023-01-25T06:29:59.995Z,24.80
2023-01-25T06:32:51.554Z,24.80
2023-01-25T06:35:17.624Z,24.80
2023-01-25T06:37:43.787Z,24.70
2023-01-25T06:40:11.935Z,24.70
2023-01-25T06:42:38.013Z,24.70
2023-01-25T06:45:04.531Z,24.80
2023-01-25T06:47:30.650Z,24.80
2023-01-25T06:49:58.550Z,24.70
2023-01-25T06:52:24.627Z,24.70
2023-01-25T06:54:52.537Z,24.70
2023-01-25T06:57:20.546Z,24.70
2023-01-25T06:59:46.601Z,24.70
2023-01-25T07:02:15.328Z,24.70
2023-01-25T07:04:42.610Z,24.70
2023-01-25T07:07:09.306Z,24.70
2023-01-25T07:09:35.848Z,24.70
2023-01-25T07:12:04.099Z,24.70
2023-01-25T07:14:31.946Z,24.70
2023-01-25T07:16:58.186Z,24.70
2023-01-25T07:19:27.582Z,24.70
2023-01-25T07:21:53.645Z,24.70
2023-01-25T07:24:20.027Z,24.70
2023-01-25T07:26:50.400Z,24.70
2023-01-25T07:29:19.670Z,24.70
2023-01-25T07:31:46.900Z,24.70
2023-01-25T07:34:13.870Z,24.70
2023-01-25T07:36:40.971Z,24.70
2023-01-25T07:39:11.169Z,24.70
2023-01-25T07:41:39.502Z,24.70
2023-01-25T07:44:06.209Z,24.70
2023-01-25T07:46:32.579Z,24.60
2023-01-25T07:48:58.671Z,24.60
2023-01-25T07:51:29.549Z,24.60
2023-01-25T07:54:01.339Z,24.60
2023-01-25T07:56:37.161Z,24.60
2023-01-25T07:59:04.209Z,24.60
2023-01-25T08:01:33.451Z,24.60
2023-01-25T08:04:03.993Z,24.60
2023-01-25T08:06:43.694Z,24.60
2023-01-25T08:09:19.261Z,24.60
2023-01-25T08:11:48.762Z,24.60
2023-01-25T08:14:18.750Z,24.60
2023-01-25T08:16:44.911Z,24.60
2023-01-25T08:19:11.332Z,24.60
2023-01-25T08:21:37.650Z,24.60
2023-01-25T08:24:07.331Z,24.60
2023-01-25T08:26:58.289Z,24.60
2023-01-25T08:29:27.313Z,24.60
2023-01-25T08:31:54.612Z,24.60
2023-01-25T08:34:20.705Z,24.60
2023-01-25T08:36:46.769Z,24.60
2023-01-25T08:39:12.891Z,24.60
2023-01-25T08:41:42.651Z,24.60
2023-01-25T08:44:12.683Z,24.60
2023-01-25T08:46:38.833Z,24.60
2023-01-25T08:49:05.008Z,24.60
2023-01-25T08:51:32.142Z,24.60
2023-01-25T08:54:24.672Z,24.50
2023-01-25T08:56:50.734Z,24.50
2023-01-25T08:59:20.611Z,24.50
2023-01-25T09:01:47.753Z,24.50
2023-01-25T09:07:19.745Z,24.40
2023-01-25T09:09:49.822Z,24.40
2023-01-25T09:12:19.636Z,24.50
2023-01-25T09:14:45.670Z,24.40
2023-01-25T09:17:15.608Z,24.40
2023-01-25T09:19:47.570Z,24.40
2023-01-25T09:22:15.662Z,24.40
2023-01-25T09:24:45.630Z,24.40
2023-01-25T09:27:12.613Z,24.40
2023-01-25T09:29:49.625Z,24.40
2023-01-25T09:32:29.789Z,24.40
2023-01-25T09:34:57.622Z,24.40
2023-01-25T09:37:24.231Z,24.40
2023-01-25T09:39:50.363Z,24.40
2023-01-25T09:42:49.771Z,24.40
2023-01-25T09:45:36.067Z,24.40
2023-01-25T09:48:26.873Z,24.40
2023-01-25T09:51:18.559Z,24.40
2023-01-25T09:53:57.971Z,24.40
2023-01-25T09:56:32.474Z,24.40
2023-01-25T09:59:16.638Z,24.40
2023-01-25T10:02:24.351Z,24.40
2023-01-25T10:04:56.550Z,24.40
2023-01-25T10:07:37.484Z,24.40
2023-01-25T10:12:57.663Z,24.30
2023-01-25T10:15:33.779Z,24.30
2023-01-25T10:18:21.945Z,24.30
2023-01-25T10:21:04.199Z,24.30
2023-01-25T10:24:02.772Z,24.30
2023-01-25T10:26:33.372Z,24.30
2023-01-25T10:29:28.544Z,24.30
2023-01-25T10:32:12.238Z,24.30
2023-01-25T10:34:56.306Z,24.30
2023-01-25T10:37:31.866Z,24.30
2023-01-25T10:40:26.237Z,24.30
2023-01-25T10:43:03.004Z,24.30
2023-01-25T10:45:29.102Z,24.30
2023-01-25T10:48:05.163Z,24.30
2023-01-25T10:50:49.183Z,24.30
2023-01-25T10:53:27.862Z,24.30
2023-01-25T10:56:09.755Z,24.30
2023-01-25T10:58:45.905Z,24.30
2023-01-25T11:01:25.358Z,24.30
2023-01-25T11:03:51.470Z,24.30
2023-01-25T11:06:37.835Z,24.30
2023-01-25T11:09:36.733Z,24.30
2023-01-25T11:12:20.355Z,24.30
2023-01-25T11:14:50.891Z,24.30
2023-01-25T11:17:29.594Z,24.30
2023-01-25T11:20:19.915Z,24.30
2023-01-25T11:22:52.831Z,24.30
2023-01-25T11:25:36.221Z,24.30
2023-01-25T11:28:17.811Z,24.30
2023-01-25T11:30:45.189Z,24.30
2023-01-25T11:33:17.752Z,24.30
2023-01-25T11:36:28.113Z,24.30
2023-01-25T11:39:12.969Z,24.30
2023-01-25T11:42:18.257Z,24.30
2023-01-25T11:45:04.524Z,24.30
2023-01-25T11:48:09.236Z,24.30
2023-01-25T11:50:46.452Z,24.20
2023-01-25T11:53:58.213Z,24.30
2023-01-25T11:56:49.834Z,24.20
2023-01-25T11:59:54.198Z,24.20
2023-01-25T12:03:12.244Z,24.20
2023-01-25T12:06:02.229Z,24.20
2023-01-25T12:09:06.702Z,24.20
2023-01-25T12:11:48.977Z,24.20
2023-01-25T12:14:26.636Z,24.20
2023-01-25T12:17:23.270Z,24.20
2023-01-25T12:20:27.470Z,24.20
2023-01-25T12:23:29.587Z,24.20
2023-01-25T12:26:35.744Z,24.20
2023-01-25T12:29:19.432Z,24.20
2023-01-25T12:32:09.792Z,24.20
2023-01-25T12:34:38.270Z,24.20
2023-01-25T12:37:35.396Z,24.20
2023-01-25T12:40:25.846Z,24.20
2023-01-25T12:42:58.292Z,24.20
2023-01-25T12:45:34.283Z,24.20
2023-01-25T12:48:23.794Z,24.20
2023-01-25T12:50:57.912Z,24.20
2023-01-25T12:53:44.218Z,24.20
2023-01-25T12:56:34.567Z,24.20
2023-01-25T12:59:16.287Z,24.20
2023-01-25T13:01:53.543Z,24.20
2023-01-25T13:04:34.865Z,24.20
2023-01-25T13:07:22.607Z,24.20
2023-01-25T13:10:17.085Z,24.20
2023-01-25T13:13:00.151Z,24.20
2023-01-25T13:15:41.194Z,24.20
2023-01-25T13:18:36.420Z,24.20
2023-01-25T13:21:08.026Z,24.20
2023-01-25T13:23:51.394Z,24.20
2023-01-25T13:26:23.332Z,24.30
2023-01-25T13:28:51.819Z,24.20
2023-01-25T13:31:52.142Z,24.20
2023-01-25T13:34:54.007Z,24.30
2023-01-25T13:37:23.409Z,24.30
2023-01-25T13:40:10.273Z,24.30
2023-01-25T13:42:38.475Z,24.30
2023-01-25T13:45:13.643Z,24.30
2023-01-25T13:47:42.591Z,24.30
2023-01-25T13:50:33.603Z,24.30
2023-01-25T13:53:28.873Z,24.30
2023-01-25T13:55:57.263Z,24.30
2023-01-25T13:58:49.412Z,24.30
2023-01-25T14:01:19.030Z,24.30
2023-01-25T14:03:49.059Z,24.40
2023-01-25T14:06:19.938Z,24.30
2023-01-25T14:08:51.536Z,24.40
2023-01-25T14:11:27.679Z,24.30
2023-01-25T14:14:33.405Z,24.40
2023-01-25T14:17:08.698Z,24.40
2023-01-25T14:19:38.477Z,24.40
2023-01-25T14:22:30.271Z,24.40
2023-01-25T14:25:22.002Z,24.40
2023-01-25T14:27:59.143Z,24.40
2023-01-25T14:30:31.583Z,24.40
2023-01-25T14:33:03.575Z,24.40
2023-01-25T14:35:54.724Z,24.40
2023-01-25T14:38:33.859Z,24.40
2023-01-25T14:41:59.328Z,24.40
2023-01-25T14:44:28.565Z,24.30
2023-01-25T14:47:32.909Z,24.30
2023-01-25T14:50:38.387Z,24.30
2023-01-25T14:53:24.263Z,24.40
2023-01-25T14:55:51.275Z,24.30
2023-01-25T14:58:22.232Z,24.30
2023-01-25T15:01:02.698Z,24.30
2023-01-25T15:03:30.576Z,24.30
2023-01-25T15:06:02.895Z,24.30
2023-01-25T15:08:35.930Z,24.30
2023-01-25T15:11:43.083Z,24.30
2023-01-25T15:14:37.545Z,24.30
2023-01-25T15:17:03.788Z,24.30
2023-01-25T15:19:30.922Z,24.30
2023-01-25T15:21:59.226Z,24.30
2023-01-25T15:24:58.307Z,24.20
2023-01-25T15:27:25.694Z,24.20
2023-01-25T15:29:51.821Z,24.20
2023-01-25T15:32:20.588Z,24.20
2023-01-25T15:34:50.978Z,24.20
2023-01-25T15:37:18.782Z,24.20
2023-01-25T15:39:46.763Z,24.20
2023-01-25T15:42:12.842Z,24.20
2023-01-25T15:44:38.910Z,24.20
2023-01-25T15:47:05.134Z,24.20
2023-01-25T15:49:31.727Z,24.20
2023-01-25T15:51:58.880Z,24.20
2023-01-25T15:54:25.693Z,24.20
2023-01-25T15:56:58.385Z,24.20
2023-01-25T15:59:24.886Z,24.20
2023-01-25T16:01:50.953Z,24.20
2023-01-25T16:04:18.818Z,24.20
2023-01-25T16:06:54.014Z,24.20
2023-01-25T16:09:26.658Z,24.20
2023-01-25T16:11:54.607Z,24.20
2023-01-25T16:14:23.037Z,24.20
2023-01-25T16:16:51.218Z,24.20
2023-01-25T16:19:24.427Z,24.20
2023-01-25T16:21:51.872Z,24.20
2023-01-25T16:24:18.209Z,24.20
2023-01-25T16:26:56.019Z,24.20
2023-01-25T16:29:22.569Z,24.20
2023-01-25T16:31:48.956Z,24.20
2023-01-25T16:34:16.867Z,24.20
2023-01-25T16:36:49.317Z,24.20
2023-01-25T16:39:28.423Z,24.20
2023-01-25T16:41:56.558Z,24.20
2023-01-25T16:44:22.660Z,24.20
2023-01-25T16:46:49.554Z,24.20
2023-01-25T16:49:44.418Z,24.20
2023-01-25T16:52:12.050Z,24.20
2023-01-25T16:54:40.085Z,24.20
2023-01-25T16:57:19.829Z,24.20
2023-01-25T16:59:47.846Z,24.20
2023-01-25T17:02:13.936Z,24.10
2023-01-25T17:04:40.042Z,24.20
2023-01-25T17:07:11.315Z,24.20
2023-01-25T17:09:37.613Z,24.20
2023-01-25T17:12:09.205Z,24.20
2023-01-25T17:14:40.221Z,24.20
2023-01-25T17:17:06.478Z,24.20
2023-01-25T17:19:32.568Z,24.20
2023-01-25T17:21:58.612Z,24.20
2023-01-25T17:24:25.421Z,24.20
2023-01-25T17:26:55.985Z,24.20
2023-01-25T17:29:25.851Z,24.20
2023-01-25T17:31:53.219Z,24.20
2023-01-25T17:34:19.554Z,24.20
2023-01-25T17:36:49.712Z,24.20
2023-01-25T17:39:40.725Z,24.20
2023-01-25T17:42:08.408Z,24.20
2023-01-25T17:44:34.822Z,24.20
2023-01-25T17:47:02.894Z,24.20
2023-01-25T17:49:29.972Z,24.20
2023-01-25T17:51:56.053Z,24.20
2023-01-25T17:54:22.200Z,24.20
2023-01-25T17:56:53.427Z,24.20
2023-01-25T17:59:19.483Z,24.20
2023-01-25T18:01:47.647Z,24.20
2023-01-25T18:04:17.685Z,24.20
2023-01-25T18:06:44.226Z,24.30
2023-01-25T18:09:10.325Z,24.30
2023-01-25T18:11:37.729Z,24.30
2023-01-25T18:14:11.859Z,24.40
2023-01-25T18:16:42.260Z,24.40
2023-01-25T18:19:10.181Z,24.40
2023-01-25T18:21:36.535Z,24.40
2023-01-25T18:24:25.393Z,24.50
2023-01-25T18:26:59.316Z,24.50
2023-01-25T18:29:32.827Z,24.50
2023-01-25T18:32:03.637Z,24.50
2023-01-25T18:34:29.938Z,24.50
2023-01-25T18:37:00.353Z,24.60
2023-01-25T18:39:27.531Z,24.60
2023-01-25T18:41:54.335Z,24.60
2023-01-25T18:44:22.860Z,24.60
2023-01-25T18:46:50.893Z,24.60
2023-01-25T18:49:16.953Z,24.60
2023-01-25T18:52:10.551Z,24.60
2023-01-25T18:54:40.857Z,24.60
2023-01-25T18:57:12.465Z,24.60
2023-01-25T18:59:39.787Z,24.60
2023-01-25T19:02:06.982Z,24.70
2023-01-25T19:04:33.882Z,24.70
2023-01-25T19:07:01.469Z,24.60
2023-01-25T19:09:28.245Z,24.70
2023-01-25T19:11:54.862Z,24.70
2023-01-25T19:14:21.484Z,24.70
2023-01-25T19:16:51.537Z,24.70
2023-01-25T19:19:20.310Z,24.70
2023-01-25T19:21:49.264Z,24.70
2023-01-25T19:24:19.319Z,24.70
2023-01-25T19:26:47.646Z,24.70
2023-01-25T19:29:14.850Z,24.70
2023-01-25T19:31:45.023Z,24.60
2023-01-25T19:34:11.243Z,24.70
2023-01-25T19:36:43.823Z,24.70
2023-01-25T19:39:09.941Z,24.70
2023-01-25T19:41:39.056Z,24.70
2023-01-25T19:44:06.513Z,24.70
2023-01-25T19:46:35.452Z,24.70
2023-01-25T19:49:07.493Z,24.70
2023-01-25T19:51:41.405Z,24.70
2023-01-25T19:54:16.131Z,24.70
2023-01-25T19:56:45.043Z,24.80
2023-01-25T19:59:20.483Z,24.70
2023-01-25T20:01:47.101Z,24.70
2023-01-25T20:04:34.773Z,24.70
2023-01-25T20:07:00.830Z,24.70
2023-01-25T20:09:28.356Z,24.80
2023-01-25T20:11:56.193Z,24.80
2023-01-25T20:14:23.122Z,24.70
2023-01-25T20:16:52.000Z,24.70
2023-01-25T20:19:18.317Z,24.80
2023-01-25T20:21:49.312Z,24.80
2023-01-25T20:24:19.024Z,24.80
2023-01-25T20:26:50.553Z,24.80
2023-01-25T20:29:20.797Z,24.80
2023-01-25T20:31:48.024Z,24.90
2023-01-25T20:34:20.128Z,24.80
2023-01-25T20:36:47.187Z,24.80
2023-01-25T20:39:15.302Z,24.80
2023-01-25T20:41:42.244Z,24.80
2023-01-25T20:44:10.511Z,24.80
2023-01-25T20:46:38.439Z,24.80
2023-01-25T20:49:10.547Z,24.80
2023-01-25T20:51:36.640Z,24.80
2023-01-25T20:54:02.787Z,24.80
2023-01-25T20:56:32.105Z,24.80
2023-01-25T20:58:58.221Z,24.80
2023-01-25T21:01:37.736Z,24.90
2023-01-25T21:04:08.806Z,24.80
2023-01-25T21:06:38.714Z,24.80
2023-01-25T21:09:05.020Z,24.80
2023-01-25T21:11:35.023Z,24.80
2023-01-25T21:14:04.997Z,24.80
2023-01-25T21:16:31.097Z,24.80
2023-01-25T21:18:58.639Z,24.80
2023-01-25T21:21:27.583Z,24.80
2023-01-25T21:24:05.964Z,24.80
2023-01-25T21:26:36.305Z,24.90
2023-01-25T21:29:03.962Z,24.80
2023-01-25T21:31:34.779Z,24.90
2023-01-25T21:34:02.513Z,24.90
2023-01-25T21:36:30.210Z,24.80
2023-01-25T21:38:56.353Z,24.80
2023-01-25T21:41:25.086Z,24.80
2023-01-25T21:44:22.200Z,24.90
2023-01-25T21:49:56.459Z,24.90
2023-01-25T21:52:22.570Z,24.90
2023-01-25T21:54:48.679Z,24.90
2023-01-25T21:57:18.038Z,24.90
2023-01-25T21:59:44.239Z,24.80
2023-01-25T22:02:13.321Z,24.90
2023-01-25T22:04:39.517Z,24.90
2023-01-25T22:07:07.927Z,24.90
2023-01-25T22:09:35.140Z,24.90
2023-01-25T22:12:01.367Z,24.90
2023-01-25T22:14:31.047Z,24.90
2023-01-25T22:16:57.410Z,24.90
2023-01-25T22:19:23.617Z,24.90
2023-01-25T22:21:49.718Z,24.90
2023-01-25T22:24:16.193Z,24.90
2023-01-25T22:26:53.036Z,24.90
2023-01-25T22:29:19.972Z,24.90
2023-01-25T22:31:46.160Z,24.90
2023-01-25T22:34:16.077Z,24.90
2023-01-25T22:36:45.959Z,24.90
2023-01-25T22:39:16.104Z,24.90
2023-01-25T22:41:46.163Z,24.90
2023-01-25T22:44:13.820Z,24.90
2023-01-25T22:46:39.894Z,24.90
2023-01-25T22:49:06.968Z,24.90
2023-01-25T22:51:33.077Z,24.90
2023-01-25T22:54:04.890Z,24.90
2023-01-25T22:56:34.063Z,24.90
2023-01-25T22:59:02.345Z,24.90
2023-01-25T23:01:33.638Z,24.90
2023-01-25T23:04:25.031Z,24.90
2023-01-25T23:07:04.569Z,24.90
2023-01-25T23:09:30.708Z,24.90
2023-01-25T23:11:57.994Z,24.90
2023-01-25T23:14:42.631Z,24.90
2023-01-25T23:17:27.528Z,24.90
2023-01-25T23:19:55.008Z,24.90
2023-01-25T23:22:22.077Z,24.90
2023-01-25T23:24:52.034Z,25.00
2023-01-25T23:27:53.233Z,24.90
2023-01-25T23:30:19.310Z,24.90
2023-01-25T23:32:49.277Z,24.90
2023-01-25T23:35:40.660Z,24.90
2023-01-25T23:38:14.306Z,24.90
2023-01-25T23:40:41.515Z,24.90
2023-01-25T23:43:07.745Z,24.90
2023-01-25T23:45:35.030Z,24.90
2023-01-25T23:48:01.063Z,24.90
2023-01-25T23:50:53.524Z,25.00
2023-01-25T23:53:20.011Z,25.00
2023-01-25T23:55:56.091Z,24.90
2023-01-25T23:58:24.017Z,24.90
